Time;durP1;ratioP1;P1;durP2;ratioP2;P2;SDS_P1;SDS_P2;PMS_P1;PMS_P2;Temp;Humidity;BMP_temperature;BMP_pressure;BME280_temperature;BME280_humidity;BME280_pressure;Samples;Min_cycle;Max_cycle;Signal;HPM_P1;HPM_P2
2021/12/11 00:01:53;;;;;;;26.33;14.73;;;2.30;99.90;;;;;;4375822;28;10000236;-72
2021/12/11 00:04:31;;;;;;;28.73;14.85;;;2.30;99.90;;;;;;5081338;28;20020;-72
2021/12/11 00:07:02;;;;;;;26.63;14.95;;;2.30;99.90;;;;;;5086908;28;20075;-72
2021/12/11 00:09:39;;;;;;;24.65;14.80;;;2.30;99.90;;;;;;5093413;28;20041;-71
2021/12/11 00:12:25;;;;;;;33.25;15.70;;;2.30;99.90;;;;;;5091926;28;20024;-72
2021/12/11 00:15:10;;;;;;;26.95;14.35;;;2.30;99.90;;;;;;5100287;28;20023;-71
2021/12/11 00:17:36;;;;;;;28.73;14.63;;;2.30;99.90;;;;;;5069226;28;20103;-72
2021/12/11 00:20:08;;;;;;;25.45;13.85;;;2.30;99.90;;;;;;5078779;28;20020;-71
2021/12/11 00:22:34;;;;;;;24.95;13.73;;;2.30;99.90;;;;;;5096036;28;20028;-71
2021/12/11 00:25:08;;;;;;;22.33;13.10;;;2.30;99.90;;;;;;5095018;28;20039;-71
2021/12/11 00:27:38;;;;;;;23.13;13.15;;;2.40;99.90;;;;;;5076885;28;20036;-71
2021/12/11 00:30:10;;;;;;;21.90;13.10;;;2.40;99.90;;;;;;5077137;28;20081;-72
2021/12/11 00:32:37;;;;;;;23.90;13.63;;;2.40;99.90;;;;;;5077717;28;20027;-72
2021/12/11 00:35:11;;;;;;;22.73;13.60;;;2.40;99.90;;;;;;5068145;28;20404;-71
2021/12/11 00:37:38;;;;;;;21.77;12.60;;;2.40;99.90;;;;;;5066772;28;20498;-71
2021/12/11 00:40:07;;;;;;;25.58;13.18;;;2.30;99.90;;;;;;5071577;28;20035;-71
2021/12/11 00:42:34;;;;;;;19.48;12.68;;;2.20;99.90;;;;;;5068205;28;20042;-71
2021/12/11 00:45:13;;;;;;;23.23;12.40;;;2.10;99.90;;;;;;5068708;28;20032;-71
2021/12/11 00:47:58;;;;;;;20.33;11.90;;;2.10;99.90;;;;;;5067324;28;20033;-71
2021/12/11 00:50:29;;;;;;;20.52;11.93;;;2.00;99.90;;;;;;5066571;28;20024;-71
2021/12/11 00:53:04;;;;;;;22.88;11.90;;;2.10;99.90;;;;;;5080489;28;20021;-71
2021/12/11 00:55:37;;;;;;;19.58;12.00;;;2.10;99.90;;;;;;5082450;28;20028;-72
2021/12/11 00:58:02;;;;;;;23.67;12.00;;;2.10;99.90;;;;;;5076453;28;20451;-72
2021/12/11 01:00:28;;;;;;;20.73;11.07;;;2.10;99.90;;;;;;5081177;28;20100;-72
2021/12/11 01:02:55;;;;;;;19.48;11.43;;;2.10;99.90;;;;;;5081121;28;20508;-71
2021/12/11 01:05:22;;;;;;;23.25;11.65;;;2.20;99.90;;;;;;5078117;28;20107;-72
2021/12/11 01:07:49;;;;;;;20.27;11.80;;;2.20;99.90;;;;;;5082400;28;20048;-72
2021/12/11 01:10:24;;;;;;;18.90;11.20;;;2.20;99.90;;;;;;5082091;28;20036;-72
2021/12/11 01:12:58;;;;;;;23.73;11.55;;;2.20;99.90;;;;;;5082229;28;20544;-72
2021/12/11 01:15:46;;;;;;;19.52;10.80;;;2.30;99.90;;;;;;5076981;28;20036;-71
2021/12/11 01:21:05;;;;;;;19.80;10.63;;;2.30;99.90;;;;;;5084755;28;20028;-71
2021/12/11 01:26:11;;;;;;;17.98;10.73;;;2.30;99.90;;;;;;5085331;28;20401;-71
2021/12/11 01:28:37;;;;;;;24.02;11.77;;;2.30;99.90;;;;;;5079545;28;20565;-71
2021/12/11 01:31:06;;;;;;;22.77;12.13;;;2.30;99.90;;;;;;5071600;28;20394;-71
2021/12/11 01:33:33;;;;;;;25.88;12.55;;;2.20;99.90;;;;;;5084088;28;20043;-72
2021/12/11 01:35:59;;;;;;;24.00;12.45;;;2.20;99.90;;;;;;5081276;28;20036;-71
2021/12/11 01:38:29;;;;;;;23.63;13.50;;;2.20;99.90;;;;;;5082782;28;20533;-72
2021/12/11 01:40:59;;;;;;;26.00;13.50;;;2.20;99.90;;;;;;5077408;28;20242;-72
2021/12/11 01:43:29;;;;;;;20.10;11.70;;;2.20;99.90;;;;;;5073300;28;20032;-71
2021/12/11 01:45:58;;;;;;;19.25;11.52;;;2.20;99.90;;;;;;5078891;28;20029;-72
2021/12/11 01:48:32;;;;;;;22.80;12.20;;;2.10;99.90;;;;;;5079313;28;20103;-71
2021/12/11 01:51:04;;;;;;;18.45;10.65;;;2.10;99.90;;;;;;5080402;28;20027;-71
2021/12/11 01:53:35;;;;;;;18.38;11.45;;;2.10;99.90;;;;;;5077244;28;20059;-71
2021/12/11 01:56:06;;;;;;;17.48;9.93;;;2.00;99.90;;;;;;5081359;28;20030;-72
2021/12/11 01:58:37;;;;;;;19.83;10.63;;;1.80;99.90;;;;;;5080904;28;20093;-71
2021/12/11 02:01:15;;;;;;;19.10;11.43;;;1.70;99.90;;;;;;5080253;28;20106;-71
2021/12/11 02:03:41;;;;;;;19.52;11.55;;;1.50;99.90;;;;;;5077162;28;20125;-72
2021/12/11 02:06:08;;;;;;;20.45;12.55;;;1.50;99.90;;;;;;5078900;28;20024;-72
2021/12/11 02:08:36;;;;;;;18.10;11.05;;;1.40;99.90;;;;;;5081039;28;20034;-71
2021/12/11 02:11:10;;;;;;;17.92;11.30;;;1.30;99.90;;;;;;5080456;28;20032;-72
2021/12/11 02:13:49;;;;;;;19.15;11.38;;;1.20;99.90;;;;;;5076836;28;20726;-71
2021/12/11 02:16:32;;;;;;;18.77;11.15;;;1.10;99.90;;;;;;5074595;28;20107;-71
2021/12/11 02:19:09;;;;;;;19.70;11.82;;;1.00;99.90;;;;;;5082038;28;20036;-71
2021/12/11 02:21:48;;;;;;;20.25;11.15;;;1.00;99.90;;;;;;5076968;28;20036;-71
2021/12/11 02:24:19;;;;;;;19.17;11.63;;;0.90;99.90;;;;;;5073692;28;20043;-72
2021/12/11 02:26:44;;;;;;;21.25;11.60;;;0.90;99.90;;;;;;5089090;28;20548;-72
2021/12/11 02:29:44;;;;;;;20.27;12.35;;;0.80;99.90;;;;;;5077641;28;20038;-72
2021/12/11 02:32:21;;;;;;;20.10;11.80;;;0.80;99.90;;;;;;5043122;28;20163;-71
2021/12/11 02:34:56;;;;;;;21.92;12.93;;;0.80;99.90;;;;;;5074317;28;20156;-72
2021/12/11 02:37:34;;;;;;;21.88;12.70;;;0.80;99.90;;;;;;5071484;28;20035;-71
2021/12/11 02:40:09;;;;;;;22.45;13.93;;;0.70;99.90;;;;;;5071045;28;20739;-72
2021/12/11 02:42:40;;;;;;;23.98;13.70;;;0.70;99.90;;;;;;5080396;28;20182;-72
2021/12/11 02:45:16;;;;;;;22.80;13.43;;;0.70;99.90;;;;;;5078610;28;20032;-71
2021/12/11 02:48:07;;;;;;;21.38;13.38;;;0.70;99.90;;;;;;5068528;28;20288;-72
2021/12/11 02:50:40;;;;;;;20.67;12.35;;;0.70;99.90;;;;;;5068071;28;20762;-71
2021/12/11 02:53:17;;;;;;;19.65;12.52;;;0.70;99.90;;;;;;5068750;28;20491;-72
2021/12/11 02:56:22;;;;;;;18.13;11.82;;;0.70;99.90;;;;;;5071671;28;20451;-72
2021/12/11 02:59:00;;;;;;;17.90;11.48;;;0.60;99.90;;;;;;5073504;28;20526;-72
2021/12/11 03:01:31;;;;;;;22.55;12.88;;;0.50;99.90;;;;;;5068347;28;20104;-71
2021/12/11 03:04:06;;;;;;;19.15;12.25;;;0.40;99.90;;;;;;5084595;28;20028;-71
2021/12/11 03:06:39;;;;;;;20.15;11.63;;;0.40;99.90;;;;;;5069744;28;20125;-71
2021/12/11 03:09:08;;;;;;;20.15;11.90;;;0.30;99.90;;;;;;5067987;28;20028;-71
2021/12/11 03:11:34;;;;;;;23.50;13.30;;;0.20;99.90;;;;;;5068261;28;20059;-71
2021/12/11 03:14:03;;;;;;;19.80;11.95;;;0.20;99.90;;;;;;5074940;28;20114;-71
2021/12/11 03:16:35;;;;;;;19.85;11.75;;;0.20;99.90;;;;;;5073366;28;20031;-72
2021/12/11 03:19:04;;;;;;;20.38;12.27;;;0.10;99.90;;;;;;5068670;28;20063;-71
2021/12/11 03:21:30;;;;;;;19.15;11.55;;;0.10;99.90;;;;;;5068241;28;20512;-71
2021/12/11 03:23:56;;;;;;;20.67;12.52;;;0.10;99.90;;;;;;5067110;28;20028;-71
2021/12/11 03:26:22;;;;;;;21.88;12.80;;;0.10;99.90;;;;;;5075747;28;20032;-71
2021/12/11 03:28:48;;;;;;;21.13;11.88;;;0.10;99.90;;;;;;5075542;28;20023;-71
2021/12/11 03:31:15;;;;;;;22.17;12.88;;;0.00;99.90;;;;;;5074545;28;20024;-72
2021/12/11 03:33:45;;;;;;;20.00;12.45;;;-0.10;99.90;;;;;;5086879;28;20112;-72
2021/12/11 03:36:14;;;;;;;20.40;12.65;;;-0.10;99.90;;;;;;5101440;28;20039;-72
2021/12/11 03:38:43;;;;;;;18.65;11.90;;;-0.10;99.90;;;;;;5088037;28;20536;-72
2021/12/11 03:41:09;;;;;;;19.30;12.68;;;-0.10;99.90;;;;;;5091264;28;20110;-72
2021/12/11 03:43:36;;;;;;;21.20;12.40;;;-0.10;99.90;;;;;;5090281;28;20028;-72
2021/12/11 03:46:06;;;;;;;19.65;13.00;;;-0.20;99.90;;;;;;5087762;28;20118;-72
2021/12/11 03:48:44;;;;;;;20.70;13.25;;;-0.20;99.90;;;;;;5090942;28;20076;-71
2021/12/11 03:51:13;;;;;;;21.13;12.55;;;-0.20;99.90;;;;;;5091127;28;20028;-72
2021/12/11 03:53:40;;;;;;;20.65;12.80;;;-0.20;99.90;;;;;;5091193;28;20027;-72
2021/12/11 03:56:09;;;;;;;21.45;13.05;;;-0.30;99.90;;;;;;5087354;28;20031;-71
2021/12/11 03:58:35;;;;;;;20.13;12.27;;;-0.20;99.90;;;;;;5092143;28;20505;-71
2021/12/11 04:01:13;;;;;;;21.80;13.10;;;-0.30;99.90;;;;;;5091926;27;20167;-71
2021/12/11 04:03:42;;;;;;;19.33;12.05;;;-0.30;99.90;;;;;;5089539;28;20509;-71
2021/12/11 04:06:10;;;;;;;18.15;11.90;;;-0.30;99.90;;;;;;5087471;28;20020;-71
2021/12/11 04:08:41;;;;;;;23.85;13.93;;;-0.40;99.90;;;;;;5092736;28;20024;-72
2021/12/11 04:11:20;;;;;;;21.50;12.65;;;-0.30;99.90;;;;;;5086416;28;20024;-71
2021/12/11 04:13:48;;;;;;;23.33;12.77;;;-0.40;99.90;;;;;;5089293;28;20116;-71
2021/12/11 04:16:15;;;;;;;20.17;12.57;;;-0.40;99.90;;;;;;5089526;28;20023;-71
2021/12/11 04:18:41;;;;;;;21.25;12.38;;;-0.40;99.90;;;;;;5090677;28;20027;-72
2021/12/11 04:21:07;;;;;;;23.20;12.55;;;-0.40;99.90;;;;;;5086855;28;20035;-71
2021/12/11 04:23:34;;;;;;;20.98;12.30;;;-0.40;99.90;;;;;;5090588;28;20035;-72
2021/12/11 04:26:02;;;;;;;19.15;11.77;;;-0.40;99.90;;;;;;5087933;28;20063;-72
2021/12/11 04:28:30;;;;;;;18.20;11.45;;;-0.40;99.90;;;;;;5089926;28;20032;-71
2021/12/11 04:31:04;;;;;;;18.70;11.88;;;-0.40;99.90;;;;;;5094077;28;20023;-71
2021/12/11 04:33:33;;;;;;;17.23;11.57;;;-0.40;99.90;;;;;;5083736;28;20067;-72
2021/12/11 04:35:58;;;;;;;19.00;11.35;;;-0.40;99.90;;;;;;5073865;28;20032;-71
2021/12/11 04:38:24;;;;;;;21.88;12.13;;;-0.50;99.90;;;;;;5075390;28;20031;-72
2021/12/11 04:40:54;;;;;;;18.20;11.80;;;-0.50;99.90;;;;;;5076050;28;20024;-71
2021/12/11 04:43:22;;;;;;;18.85;12.00;;;-0.50;99.90;;;;;;5072965;28;20530;-72
2021/12/11 04:45:52;;;;;;;19.45;11.95;;;-0.50;99.90;;;;;;5071490;28;21336;-71
2021/12/11 04:48:43;;;;;;;18.50;11.63;;;-0.60;99.90;;;;;;5072789;28;20016;-72
2021/12/11 04:51:24;;;;;;;18.20;11.75;;;-0.60;99.90;;;;;;5072176;28;20042;-72
2021/12/11 04:57:21;;;;;;;17.67;11.52;;;-0.60;99.90;;;;;;5045315;28;20031;-72
2021/12/11 04:59:55;;;;;;;21.17;12.82;;;-0.60;99.90;;;;;;5072055;28;20093;-72
2021/12/11 05:05:23;;;;;;;21.88;12.10;;;-0.70;99.90;;;;;;5099997;28;20115;-71
2021/12/11 05:10:40;;;;;;;18.50;12.90;;;-0.70;99.90;;;;;;5086690;28;20115;-71
2021/12/11 05:13:06;;;;;;;22.10;13.20;;;-0.70;99.90;;;;;;5092940;28;20082;-71
2021/12/11 05:15:40;;;;;;;21.02;13.55;;;-0.70;99.90;;;;;;5081119;28;20033;-71
2021/12/11 05:18:12;;;;;;;22.23;13.15;;;-0.60;99.90;;;;;;5075705;28;20043;-72
2021/12/11 05:20:39;;;;;;;21.75;12.73;;;-0.60;99.90;;;;;;5079340;28;20039;-72
2021/12/11 05:23:06;;;;;;;18.92;12.80;;;-0.60;99.90;;;;;;5080577;28;20045;-72
2021/12/11 05:25:31;;;;;;;21.05;12.85;;;-0.60;99.90;;;;;;5076430;28;20021;-71
2021/12/11 05:27:58;;;;;;;23.92;13.27;;;-0.60;99.90;;;;;;5080296;28;20031;-71
2021/12/11 05:30:28;;;;;;;21.65;13.35;;;-0.60;99.90;;;;;;5078153;28;20507;-71
2021/12/11 05:32:56;;;;;;;19.85;12.73;;;-0.70;99.90;;;;;;5084136;28;20035;-72
2021/12/11 05:35:23;;;;;;;21.30;12.88;;;-0.60;99.90;;;;;;5094256;28;20118;-71
2021/12/11 05:37:49;;;;;;;19.13;12.15;;;-0.70;99.90;;;;;;5092881;28;20024;-71
2021/12/11 05:40:18;;;;;;;21.10;13.27;;;-0.70;99.90;;;;;;5093501;28;20565;-71
2021/12/11 05:42:44;;;;;;;20.85;13.15;;;-0.70;99.90;;;;;;5090629;28;20043;-71
2021/12/11 05:45:10;;;;;;;21.63;13.90;;;-0.70;99.90;;;;;;5092716;28;20062;-71
2021/12/11 05:47:36;;;;;;;23.48;14.63;;;-0.70;99.90;;;;;;5091354;27;20473;-72
2021/12/11 05:50:03;;;;;;;25.73;15.55;;;-0.70;99.90;;;;;;5088112;28;20458;-71
2021/12/11 05:52:29;;;;;;;22.05;14.60;;;-0.70;99.90;;;;;;5092262;28;20036;-71
2021/12/11 05:54:54;;;;;;;25.45;15.57;;;-0.70;99.90;;;;;;5107402;28;20518;-71
2021/12/11 05:57:22;;;;;;;22.55;14.32;;;-0.70;99.90;;;;;;5107545;28;20054;-71
2021/12/11 05:59:49;;;;;;;20.25;13.27;;;-0.70;99.90;;;;;;5101577;28;20115;-71
2021/12/11 06:02:27;;;;;;;20.75;13.05;;;-0.80;99.90;;;;;;5099424;28;20093;-71
2021/12/11 06:04:56;;;;;;;19.40;12.75;;;-0.80;99.90;;;;;;5104075;28;20698;-71
2021/12/11 06:07:25;;;;;;;20.30;12.98;;;-0.80;99.90;;;;;;5102164;28;20035;-72
2021/12/11 06:09:55;;;;;;;16.70;11.52;;;-0.90;99.90;;;;;;5104891;28;20047;-72
2021/12/11 06:12:22;;;;;;;20.20;12.13;;;-0.90;99.90;;;;;;5108536;28;20039;-71
2021/12/11 06:14:50;;;;;;;21.50;13.30;;;-0.90;99.90;;;;;;5106863;28;20041;-71
2021/12/11 06:17:22;;;;;;;24.30;14.88;;;-0.90;99.90;;;;;;5104572;28;20035;-71
2021/12/11 06:19:52;;;;;;;19.20;12.73;;;-0.90;99.90;;;;;;5104893;28;20062;-71
2021/12/11 06:22:25;;;;;;;20.40;12.75;;;-0.90;99.90;;;;;;5099714;28;20031;-72
2021/12/11 06:24:52;;;;;;;23.55;13.93;;;-0.90;99.90;;;;;;5098743;28;20055;-71
2021/12/11 06:27:18;;;;;;;19.13;11.98;;;-0.80;99.90;;;;;;5096156;28;20061;-71
2021/12/11 06:29:44;;;;;;;19.98;12.57;;;-0.80;99.90;;;;;;5094287;27;20603;-71
2021/12/11 06:32:10;;;;;;;19.70;11.45;;;-0.80;99.90;;;;;;5088337;28;20036;-71
2021/12/11 06:34:36;;;;;;;17.67;11.43;;;-0.80;99.90;;;;;;5087872;27;20131;-71
2021/12/11 06:37:06;;;;;;;17.02;11.25;;;-0.90;99.90;;;;;;5084975;28;20179;-71
2021/12/11 06:39:32;;;;;;;17.25;11.48;;;-0.90;99.90;;;;;;5087086;28;20302;-71
2021/12/11 06:42:00;;;;;;;18.75;11.80;;;-1.00;99.90;;;;;;5093522;27;20397;-71
2021/12/11 06:44:28;;;;;;;21.17;12.95;;;-1.00;99.90;;;;;;5092250;28;20062;-71
2021/12/11 06:46:58;;;;;;;16.90;12.07;;;-1.00;99.90;;;;;;5098614;28;20030;-71
2021/12/11 06:49:26;;;;;;;23.80;13.80;;;-1.10;99.90;;;;;;5093180;28;20032;-71
2021/12/11 06:51:52;;;;;;;21.60;12.95;;;-1.10;99.90;;;;;;5098760;28;20041;-72
2021/12/11 06:54:18;;;;;;;21.73;13.20;;;-1.10;99.90;;;;;;5104497;28;20036;-71
2021/12/11 06:56:44;;;;;;;23.80;13.88;;;-1.10;99.90;;;;;;5101355;28;20069;-72
2021/12/11 06:59:10;;;;;;;23.20;13.43;;;-1.10;99.90;;;;;;5106720;28;20024;-72
2021/12/11 07:01:37;;;;;;;21.38;13.40;;;-1.10;99.90;;;;;;5092540;28;20027;-72
2021/12/11 07:04:07;;;;;;;21.15;12.45;;;-1.10;99.90;;;;;;5103605;28;20024;-72
2021/12/11 07:06:35;;;;;;;20.48;12.73;;;-1.20;99.90;;;;;;5098128;28;21266;-72
2021/12/11 07:09:04;;;;;;;24.85;13.45;;;-1.20;99.90;;;;;;5100479;28;20034;-71
2021/12/11 07:11:31;;;;;;;22.00;15.77;;;-1.20;99.90;;;;;;5092976;28;20036;-71
2021/12/11 07:13:57;;;;;;;30.92;16.23;;;-1.20;99.90;;;;;;5094034;28;20382;-71
2021/12/11 07:16:23;;;;;;;29.95;16.60;;;-1.20;99.90;;;;;;5107547;28;20051;-72
2021/12/11 07:18:50;;;;;;;26.42;15.60;;;-1.20;99.90;;;;;;5108261;28;20075;-71
2021/12/11 07:21:16;;;;;;;27.35;15.52;;;-1.20;99.90;;;;;;5107282;28;20067;-71
2021/12/11 07:23:47;;;;;;;25.23;15.15;;;-1.30;99.90;;;;;;5106742;28;20024;-72
2021/12/11 07:26:24;;;;;;;28.10;14.55;;;-1.30;99.90;;;;;;5103164;28;20028;-72
2021/12/11 07:28:54;;;;;;;38.72;18.38;;;-1.30;99.90;;;;;;5105296;28;20035;-72
2021/12/11 07:31:21;;;;;;;37.92;19.80;;;-1.30;99.90;;;;;;5089539;28;20035;-71
2021/12/11 07:33:48;;;;;;;39.25;19.55;;;-1.30;99.90;;;;;;5091498;28;20088;-71
2021/12/11 07:36:13;;;;;;;40.13;19.73;;;-1.30;99.90;;;;;;5106956;28;20131;-71
2021/12/11 07:38:39;;;;;;;33.42;17.83;;;-1.30;99.90;;;;;;5092769;28;20111;-70
2021/12/11 07:41:09;;;;;;;37.28;19.63;;;-1.30;99.90;;;;;;5090002;28;20028;-71
2021/12/11 07:43:37;;;;;;;30.95;18.00;;;-1.20;99.90;;;;;;5101179;28;20028;-71
2021/12/11 07:46:05;;;;;;;39.22;20.77;;;-1.20;99.90;;;;;;5103712;28;20048;-71
2021/12/11 07:48:31;;;;;;;40.25;22.08;;;-1.20;99.90;;;;;;5094369;28;20028;-71
2021/12/11 07:50:57;;;;;;;39.38;22.65;;;-1.20;99.90;;;;;;5092783;28;20024;-71
2021/12/11 07:53:23;;;;;;;34.42;20.83;;;-1.10;99.90;;;;;;5103380;28;20217;-71
2021/12/11 07:55:49;;;;;;;34.60;20.52;;;-1.10;99.90;;;;;;5102742;28;20772;-72
2021/12/11 07:58:15;;;;;;;36.50;22.45;;;-1.10;99.90;;;;;;5101479;28;20038;-73
2021/12/11 08:00:43;;;;;;;35.40;20.75;;;-1.10;99.90;;;;;;5092642;28;20490;-71
2021/12/11 08:03:12;;;;;;;30.73;19.55;;;-1.10;99.90;;;;;;5089113;28;20401;-71
2021/12/11 08:05:40;;;;;;;33.22;18.63;;;-1.10;99.90;;;;;;5105162;28;20031;-71
2021/12/11 08:08:09;;;;;;;29.92;19.17;;;-1.10;99.90;;;;;;5102336;28;20477;-71
2021/12/11 08:10:37;;;;;;;27.70;18.38;;;-1.10;99.90;;;;;;5106085;28;20215;-70
2021/12/11 08:13:05;;;;;;;31.27;18.80;;;-1.00;99.90;;;;;;5101821;28;20039;-71
2021/12/11 08:15:31;;;;;;;32.20;18.65;;;-1.00;99.90;;;;;;5096280;28;20028;-71
2021/12/11 08:17:57;;;;;;;30.27;18.77;;;-1.00;99.90;;;;;;5102740;28;20043;-71
2021/12/11 08:20:27;;;;;;;31.45;19.25;;;-1.00;99.90;;;;;;5107762;28;20039;-71
2021/12/11 08:22:54;;;;;;;28.17;18.10;;;-0.90;99.90;;;;;;5101245;28;20035;-71
2021/12/11 08:25:21;;;;;;;27.75;16.70;;;-0.90;99.90;;;;;;5100739;28;20044;-71
2021/12/11 08:27:47;;;;;;;25.33;16.25;;;-0.90;99.90;;;;;;5086337;28;20032;-71
2021/12/11 08:30:13;;;;;;;27.75;16.73;;;-0.80;99.90;;;;;;5094088;28;20046;-71
2021/12/11 08:32:39;;;;;;;30.48;15.48;;;-0.90;99.90;;;;;;5097863;28;20030;-71
2021/12/11 08:35:09;;;;;;;27.35;15.45;;;-0.80;99.90;;;;;;5103963;28;20040;-71
2021/12/11 08:37:36;;;;;;;28.75;17.23;;;-0.80;99.90;;;;;;5101101;28;20036;-71
2021/12/11 08:40:05;;;;;;;31.25;19.55;;;-0.70;99.90;;;;;;5095304;28;20032;-71
2021/12/11 08:42:31;;;;;;;26.92;17.05;;;-0.60;99.90;;;;;;5106647;28;20043;-72
2021/12/11 08:45:06;;;;;;;50.92;26.90;;;-0.50;99.90;;;;;;5102124;28;20036;-71
2021/12/11 08:47:34;;;;;;;55.30;27.85;;;-0.40;99.90;;;;;;5096319;28;20492;-71
2021/12/11 08:49:59;;;;;;;53.70;27.63;;;-0.30;99.90;;;;;;5098547;28;20058;-71
2021/12/11 08:52:33;;;;;;;71.82;33.35;;;-0.30;99.90;;;;;;5102015;28;20023;-71
2021/12/11 08:55:00;;;;;;;54.67;28.73;;;-0.20;99.90;;;;;;5107165;28;20040;-70
2021/12/11 08:57:33;;;;;;;50.20;27.23;;;-0.10;99.90;;;;;;5092243;28;20362;-71
2021/12/11 09:00:15;;;;;;;33.15;18.17;;;0.00;99.90;;;;;;5105631;28;20084;-70
2021/12/11 09:03:04;;;;;;;38.33;22.80;;;0.00;99.90;;;;;;5098860;28;20043;-70
2021/12/11 09:05:36;;;;;;;31.67;20.38;;;0.10;99.90;;;;;;5105034;28;20087;-71
2021/12/11 09:08:12;;;;;;;35.42;21.92;;;0.20;99.90;;;;;;5096410;28;20031;-70
2021/12/11 09:10:51;;;;;;;28.63;19.00;;;0.20;99.90;;;;;;5100853;28;20354;-71
2021/12/11 09:13:28;;;;;;;29.65;18.13;;;0.30;99.90;;;;;;5095636;28;20135;-71
2021/12/11 09:16:23;;;;;;;29.38;17.17;;;0.40;99.90;;;;;;4749434;28;10000056;-71
2021/12/11 09:18:59;;;;;;;26.52;15.07;;;0.40;99.90;;;;;;5098537;28;20024;-71
2021/12/11 09:21:39;;;;;;;28.42;14.10;;;0.60;99.90;;;;;;5095923;28;20712;-71
2021/12/11 09:24:11;;;;;;;24.33;14.75;;;0.60;99.90;;;;;;5091400;28;20127;-71
2021/12/11 09:26:42;;;;;;;25.00;14.52;;;0.70;99.90;;;;;;5095074;28;20828;-71
2021/12/11 09:29:29;;;;;;;24.30;14.63;;;0.80;99.90;;;;;;5099143;28;20027;-71
2021/12/11 09:32:22;;;;;;;27.13;15.20;;;0.90;99.90;;;;;;5090730;28;20020;-71
2021/12/11 09:34:54;;;;;;;32.00;16.38;;;0.90;99.90;;;;;;5091909;28;20235;-71
2021/12/11 09:37:21;;;;;;;81.73;42.53;;;1.00;99.90;;;;;;5093552;28;20392;-71
2021/12/11 09:39:51;;;;;;;37.63;24.23;;;1.10;99.90;;;;;;5095766;28;20288;-71
2021/12/11 09:42:17;;;;;;;28.67;18.15;;;1.20;99.90;;;;;;5095115;28;20035;-71
2021/12/11 09:44:55;;;;;;;23.83;16.52;;;1.20;99.90;;;;;;5099255;28;20046;-71
2021/12/11 09:47:30;;;;;;;24.98;14.77;;;1.20;99.90;;;;;;5102278;28;20084;-71
2021/12/11 09:50:03;;;;;;;28.60;15.18;;;1.20;99.90;;;;;;5088522;28;20426;-70
2021/12/11 09:52:32;;;;;;;28.60;16.30;;;1.30;99.90;;;;;;5096476;28;20028;-71
2021/12/11 09:55:12;;;;;;;30.48;16.80;;;1.30;99.90;;;;;;5101548;28;20055;-71
2021/12/11 09:57:46;;;;;;;31.90;17.13;;;1.40;99.90;;;;;;5103187;28;20455;-72
2021/12/11 10:00:57;;;;;;;26.98;16.27;;;1.50;99.90;;;;;;5106581;28;20032;-72
2021/12/11 10:03:26;;;;;;;26.70;16.45;;;1.60;99.90;;;;;;5100173;28;20032;-71
2021/12/11 10:06:11;;;;;;;34.13;17.60;;;1.60;99.90;;;;;;5087846;28;20031;-71
2021/12/11 10:08:41;;;;;;;29.17;16.67;;;1.60;99.90;;;;;;5100781;28;20123;-70
2021/12/11 10:11:12;;;;;;;31.13;17.75;;;1.60;99.90;;;;;;5101067;28;20038;-70
2021/12/11 10:13:55;;;;;;;33.72;18.23;;;1.60;99.90;;;;;;5104259;28;20052;-71
2021/12/11 10:16:24;;;;;;;33.22;17.75;;;1.50;99.90;;;;;;5099218;28;20121;-70
2021/12/11 10:18:52;;;;;;;27.65;16.35;;;1.50;99.90;;;;;;5104821;28;20043;-70
2021/12/11 10:21:36;;;;;;;30.25;17.55;;;1.50;99.90;;;;;;5101121;28;20031;-71
2021/12/11 10:24:09;;;;;;;31.92;17.88;;;1.50;99.90;;;;;;5095861;28;20366;-71
2021/12/11 10:26:35;;;;;;;30.38;18.48;;;1.50;99.90;;;;;;5091634;28;20070;-70
2021/12/11 10:29:09;;;;;;;39.90;20.92;;;1.50;99.90;;;;;;5100975;28;20089;-71
2021/12/11 10:31:49;;;;;;;35.95;20.88;;;1.50;99.90;;;;;;5092974;28;20027;-71
2021/12/11 10:34:19;;;;;;;32.25;18.25;;;1.50;99.90;;;;;;5108680;28;20573;-70
2021/12/11 10:36:51;;;;;;;38.60;21.40;;;1.60;99.90;;;;;;5088996;28;20493;-71
2021/12/11 10:39:17;;;;;;;35.83;20.57;;;1.50;99.90;;;;;;5081832;28;20074;-71
2021/12/11 10:41:43;;;;;;;32.40;18.33;;;1.50;99.90;;;;;;5077232;28;20329;-71
2021/12/11 10:44:25;;;;;;;32.15;18.77;;;1.50;99.90;;;;;;5080967;28;20032;-71
2021/12/11 10:47:14;;;;;;;42.00;25.33;;;1.60;99.90;;;;;;5078002;28;20448;-71
2021/12/11 10:49:42;;;;;;;39.15;24.05;;;1.50;99.90;;;;;;5079310;28;20028;-71
2021/12/11 10:52:16;;;;;;;40.15;23.65;;;1.60;99.90;;;;;;5083506;28;20028;-71
2021/12/11 10:54:42;;;;;;;35.42;23.15;;;1.60;99.90;;;;;;5078448;28;20028;-71
2021/12/11 10:57:09;;;;;;;33.05;20.52;;;1.60;99.90;;;;;;5088681;28;20120;-71
2021/12/11 10:59:39;;;;;;;33.20;19.90;;;1.70;99.90;;;;;;5086150;28;20027;-71
2021/12/11 11:02:20;;;;;;;35.45;19.92;;;1.70;99.90;;;;;;5070561;28;20063;-72
2021/12/11 11:04:51;;;;;;;37.83;21.67;;;1.70;99.90;;;;;;5071631;28;20025;-71
2021/12/11 11:07:16;;;;;;;39.33;21.95;;;1.70;99.90;;;;;;5089591;28;20053;-71
2021/12/11 11:09:43;;;;;;;33.00;20.85;;;1.80;99.90;;;;;;5084181;28;20024;-71
2021/12/11 11:12:13;;;;;;;33.33;19.60;;;1.80;99.90;;;;;;5077135;28;20109;-72
2021/12/11 11:14:40;;;;;;;30.83;18.25;;;1.80;99.90;;;;;;5076767;28;20074;-72
2021/12/11 11:17:10;;;;;;;25.58;17.20;;;1.90;99.90;;;;;;5088794;28;20443;-72
2021/12/11 11:19:38;;;;;;;28.10;16.73;;;1.90;99.90;;;;;;5087813;28;20103;-72
2021/12/11 11:22:08;;;;;;;29.38;17.23;;;2.00;99.90;;;;;;5087480;28;20024;-71
2021/12/11 11:24:38;;;;;;;28.98;16.52;;;2.00;99.90;;;;;;5085877;28;20040;-70
2021/12/11 11:27:06;;;;;;;30.02;17.50;;;2.00;99.90;;;;;;5085026;28;20028;-71
2021/12/11 11:29:33;;;;;;;30.67;18.10;;;2.10;99.90;;;;;;5084522;28;20410;-71
2021/12/11 11:32:05;;;;;;;27.77;16.92;;;2.10;99.90;;;;;;5087190;28;20142;-71
2021/12/11 11:34:31;;;;;;;32.25;17.35;;;2.10;99.90;;;;;;5102612;28;20054;-71
2021/12/11 11:37:02;;;;;;;28.40;17.17;;;2.10;99.90;;;;;;5105993;28;20032;-72
2021/12/11 11:39:29;;;;;;;28.75;16.48;;;2.20;99.90;;;;;;5098646;28;20035;-71
2021/12/11 11:42:02;;;;;;;29.90;16.63;;;2.20;99.90;;;;;;5106124;28;20149;-72
2021/12/11 11:44:29;;;;;;;24.90;15.68;;;2.30;99.90;;;;;;5099800;28;20028;-71
2021/12/11 11:46:58;;;;;;;27.60;16.00;;;2.40;99.90;;;;;;5102687;28;20019;-72
2021/12/11 11:49:24;;;;;;;29.73;16.88;;;;;;;;;;5102022;28;20416;-71
2021/12/11 11:51:57;;;;;;;29.95;17.05;;;2.40;99.90;;;;;;5099240;28;20020;-71
2021/12/11 11:54:26;;;;;;;22.75;13.68;;;2.40;99.90;;;;;;5102256;28;20032;-71
2021/12/11 11:57:00;;;;;;;32.20;18.75;;;2.40;99.90;;;;;;5098354;28;20093;-71
2021/12/11 11:59:26;;;;;;;30.98;17.15;;;2.40;99.90;;;;;;5104123;28;20031;-71
2021/12/11 12:02:04;;;;;;;25.40;15.63;;;2.40;99.90;;;;;;5098711;28;20028;-71
2021/12/11 12:04:33;;;;;;;27.35;15.10;;;2.40;99.90;;;;;;5102439;28;20553;-71
2021/12/11 12:07:02;;;;;;;28.05;16.58;;;2.50;99.90;;;;;;5102936;28;20038;-72
2021/12/11 12:09:31;;;;;;;26.70;15.20;;;2.50;99.90;;;;;;5093809;28;20485;-71
2021/12/11 12:11:58;;;;;;;26.33;16.48;;;2.60;99.90;;;;;;5102253;28;20027;-72
2021/12/11 12:14:30;;;;;;;26.42;16.67;;;2.60;99.90;;;;;;5096888;28;20035;-71
2021/12/11 12:16:56;;;;;;;26.75;16.35;;;2.70;99.90;;;;;;5101134;28;20024;-71
2021/12/11 12:19:23;;;;;;;26.17;17.05;;;2.70;99.90;;;;;;5087092;28;20401;-72
2021/12/11 12:21:53;;;;;;;27.27;16.40;;;2.80;99.90;;;;;;5095326;28;20102;-71
2021/12/11 12:24:22;;;;;;;23.70;14.50;;;2.80;99.90;;;;;;5104983;28;20035;-73
2021/12/11 12:26:50;;;;;;;22.77;14.80;;;2.90;99.90;;;;;;5106378;28;20401;-71
2021/12/11 12:29:17;;;;;;;25.48;14.50;;;;;;;;;;5098425;28;20035;-71
2021/12/11 12:31:45;;;;;;;28.05;14.68;;;;;;;;;;5096566;28;20118;-70
2021/12/11 12:34:14;;;;;;;25.10;15.27;;;3.40;99.90;;;;;;5097891;28;20044;-71
2021/12/11 12:36:44;;;;;;;25.65;15.73;;;3.40;99.90;;;;;;5100621;28;20023;-71
2021/12/11 12:39:10;;;;;;;22.70;15.07;;;3.40;99.90;;;;;;5093039;28;20075;-71
2021/12/11 12:41:53;;;;;;;25.17;14.73;;;3.50;99.90;;;;;;5096280;28;20115;-71
2021/12/11 12:44:21;;;;;;;22.33;14.70;;;3.70;99.90;;;;;;5086548;28;20097;-70
2021/12/11 12:46:52;;;;;;;23.33;14.82;;;3.80;99.90;;;;;;5089025;28;20397;-71
2021/12/11 12:49:19;;;;;;;20.48;13.65;;;3.80;99.90;;;;;;5095168;28;20028;-71
2021/12/11 12:51:46;;;;;;;25.90;15.57;;;3.90;99.90;;;;;;5093029;28;20020;-72
2021/12/11 12:54:15;;;;;;;26.83;15.80;;;4.00;99.90;;;;;;5088247;28;20092;-71
2021/12/11 12:56:46;;;;;;;24.65;15.63;;;3.90;99.90;;;;;;5100144;28;20648;-71
2021/12/11 12:59:19;;;;;;;23.25;14.05;;;4.00;99.90;;;;;;5095816;28;20039;-71
2021/12/11 13:01:59;;;;;;;22.93;14.47;;;4.00;99.90;;;;;;5096199;28;20043;-71
2021/12/11 13:04:32;;;;;;;26.30;15.25;;;4.00;99.90;;;;;;5096300;28;20477;-71
2021/12/11 13:07:00;;;;;;;;;;;4.00;99.90;;;;;;5098783;28;20488;-71